sensor_id;sensor_type;location;lat;lon;timestamp;P1;durP1;ratioP1;P2;durP2;ratioP2
16766;SDS011;8501;49.926;8.404;2024-02-04T00:00:03;1.50;;;1.40;;
16766;SDS011;8501;49.926;8.404;2024-02-04T00:02:30;1.93;;;1.37;;
16766;SDS011;8501;49.926;8.404;2024-02-04T00:04:56;1.73;;;1.53;;
16766;SDS011;8501;49.926;8.404;2024-02-04T00:07:21;2.53;;;1.40;;
16766;SDS011;8501;49.926;8.404;2024-02-04T00:09:47;1.47;;;1.30;;
16766;SDS011;8501;49.926;8.404;2024-02-04T00:12:12;2.83;;;1.27;;
16766;SDS011;8501;49.926;8.404;2024-02-04T00:14:38;1.57;;;1.47;;
16766;SDS011;8501;49.926;8.404;2024-02-04T00:17:03;1.30;;;1.20;;
16766;SDS011;8501;49.926;8.404;2024-02-04T00:19:29;1.30;;;1.20;;
16766;SDS011;8501;49.926;8.404;2024-02-04T00:21:55;1.50;;;1.30;;
16766;SDS011;8501;49.926;8.404;2024-02-04T00:24:20;1.90;;;1.13;;
16766;SDS011;8501;49.926;8.404;2024-02-04T00:26:46;1.00;;;1.00;;
16766;SDS011;8501;49.926;8.404;2024-02-04T00:29:12;1.73;;;1.20;;
16766;SDS011;8501;49.926;8.404;2024-02-04T00:31:37;1.10;;;1.00;;
16766;SDS011;8501;49.926;8.404;2024-02-04T00:34:03;1.00;;;0.90;;
16766;SDS011;8501;49.926;8.404;2024-02-04T00:36:30;1.10;;;1.00;;
16766;SDS011;8501;49.926;8.404;2024-02-04T00:38:55;1.10;;;1.00;;
16766;SDS011;8501;49.926;8.404;2024-02-04T00:41:21;1.20;;;1.10;;
16766;SDS011;8501;49.926;8.404;2024-02-04T00:43:46;0.87;;;0.80;;
16766;SDS011;8501;49.926;8.404;2024-02-04T00:46:12;1.07;;;0.97;;
16766;SDS011;8501;49.926;8.404;2024-02-04T00:48:38;1.10;;;1.00;;
16766;SDS011;8501;49.926;8.404;2024-02-04T00:51:05;1.53;;;0.90;;
16766;SDS011;8501;49.926;8.404;2024-02-04T00:53:31;0.87;;;0.80;;
16766;SDS011;8501;49.926;8.404;2024-02-04T00:56:01;0.93;;;0.90;;
16766;SDS011;8501;49.926;8.404;2024-02-04T00:58:27;1.00;;;0.90;;
16766;SDS011;8501;49.926;8.404;2024-02-04T01:00:53;1.90;;;1.00;;
16766;SDS011;8501;49.926;8.404;2024-02-04T01:03:18;1.00;;;0.87;;
16766;SDS011;8501;49.926;8.404;2024-02-04T01:05:44;0.80;;;0.80;;
16766;SDS011;8501;49.926;8.404;2024-02-04T01:08:09;0.90;;;0.80;;
16766;SDS011;8501;49.926;8.404;2024-02-04T01:10:35;0.90;;;0.90;;
16766;SDS011;8501;49.926;8.404;2024-02-04T01:13:00;1.00;;;0.80;;
16766;SDS011;8501;49.926;8.404;2024-02-04T01:15:26;0.93;;;0.93;;
16766;SDS011;8501;49.926;8.404;2024-02-04T01:17:51;1.20;;;0.97;;
16766;SDS011;8501;49.926;8.404;2024-02-04T01:20:17;1.03;;;0.90;;
16766;SDS011;8501;49.926;8.404;2024-02-04T01:22:43;0.80;;;0.80;;
16766;SDS011;8501;49.926;8.404;2024-02-04T01:25:09;0.80;;;0.80;;
16766;SDS011;8501;49.926;8.404;2024-02-04T01:27:34;0.80;;;0.80;;
16766;SDS011;8501;49.926;8.404;2024-02-04T01:30:00;2.30;;;1.13;;
16766;SDS011;8501;49.926;8.404;2024-02-04T01:32:26;1.10;;;1.00;;
16766;SDS011;8501;49.926;8.404;2024-02-04T01:34:51;0.80;;;0.80;;
16766;SDS011;8501;49.926;8.404;2024-02-04T01:37:17;1.00;;;0.90;;
16766;SDS011;8501;49.926;8.404;2024-02-04T01:39:43;1.23;;;0.77;;
16766;SDS011;8501;49.926;8.404;2024-02-04T01:42:08;0.90;;;0.80;;
16766;SDS011;8501;49.926;8.404;2024-02-04T01:44:35;0.90;;;0.90;;
16766;SDS011;8501;49.926;8.404;2024-02-04T01:47:01;1.00;;;1.00;;
16766;SDS011;8501;49.926;8.404;2024-02-04T01:49:26;1.53;;;0.90;;
16766;SDS011;8501;49.926;8.404;2024-02-04T01:51:52;1.10;;;1.00;;
16766;SDS011;8501;49.926;8.404;2024-02-04T01:54:18;1.00;;;0.90;;
16766;SDS011;8501;49.926;8.404;2024-02-04T01:56:46;0.90;;;0.90;;
16766;SDS011;8501;49.926;8.404;2024-02-04T01:59:14;1.50;;;1.00;;
16766;SDS011;8501;49.926;8.404;2024-02-04T02:01:40;1.20;;;0.97;;
16766;SDS011;8501;49.926;8.404;2024-02-04T02:04:08;1.20;;;1.10;;
16766;SDS011;8501;49.926;8.404;2024-02-04T02:06:33;0.90;;;0.90;;
16766;SDS011;8501;49.926;8.404;2024-02-04T02:09:06;0.93;;;0.73;;
16766;SDS011;8501;49.926;8.404;2024-02-04T02:14:13;1.10;;;1.00;;
16766;SDS011;8501;49.926;8.404;2024-02-04T02:16:43;1.27;;;1.03;;
16766;SDS011;8501;49.926;8.404;2024-02-04T02:19:28;1.20;;;1.10;;
16766;SDS011;8501;49.926;8.404;2024-02-04T02:24:50;1.10;;;1.00;;
16766;SDS011;8501;49.926;8.404;2024-02-04T02:27:17;1.73;;;1.00;;
16766;SDS011;8501;49.926;8.404;2024-02-04T02:29:42;1.33;;;1.10;;
16766;SDS011;8501;49.926;8.404;2024-02-04T02:32:08;1.10;;;1.00;;
16766;SDS011;8501;49.926;8.404;2024-02-04T02:34:33;1.03;;;0.97;;
16766;SDS011;8501;49.926;8.404;2024-02-04T02:37:01;1.20;;;1.10;;
16766;SDS011;8501;49.926;8.404;2024-02-04T02:39:46;1.23;;;1.00;;
16766;SDS011;8501;49.926;8.404;2024-02-04T02:42:16;1.30;;;1.20;;
16766;SDS011;8501;49.926;8.404;2024-02-04T02:44:43;2.80;;;1.30;;
16766;SDS011;8501;49.926;8.404;2024-02-04T02:47:09;1.43;;;1.20;;
16766;SDS011;8501;49.926;8.404;2024-02-04T02:49:35;1.30;;;1.20;;
16766;SDS011;8501;49.926;8.404;2024-02-04T02:52:01;1.53;;;1.30;;
16766;SDS011;8501;49.926;8.404;2024-02-04T02:54:26;2.17;;;1.50;;
16766;SDS011;8501;49.926;8.404;2024-02-04T02:56:52;1.40;;;1.30;;
16766;SDS011;8501;49.926;8.404;2024-02-04T02:59:17;2.07;;;1.70;;
16766;SDS011;8501;49.926;8.404;2024-02-04T03:01:43;2.77;;;2.00;;
16766;SDS011;8501;49.926;8.404;2024-02-04T03:04:08;3.77;;;2.30;;
16766;SDS011;8501;49.926;8.404;2024-02-04T03:06:34;2.13;;;1.43;;
16766;SDS011;8501;49.926;8.404;2024-02-04T03:09:00;1.43;;;1.20;;
16766;SDS011;8501;49.926;8.404;2024-02-04T03:11:25;1.60;;;1.20;;
16766;SDS011;8501;49.926;8.404;2024-02-04T03:13:51;1.53;;;1.30;;
16766;SDS011;8501;49.926;8.404;2024-02-04T03:16:16;1.53;;;1.20;;
16766;SDS011;8501;49.926;8.404;2024-02-04T03:18:42;1.50;;;1.13;;
16766;SDS011;8501;49.926;8.404;2024-02-04T03:21:15;1.30;;;1.20;;
16766;SDS011;8501;49.926;8.404;2024-02-04T03:23:41;1.93;;;1.00;;
16766;SDS011;8501;49.926;8.404;2024-02-04T03:26:08;1.63;;;1.10;;
16766;SDS011;8501;49.926;8.404;2024-02-04T03:28:34;1.80;;;1.13;;
16766;SDS011;8501;49.926;8.404;2024-02-04T03:31:00;1.50;;;1.30;;
16766;SDS011;8501;49.926;8.404;2024-02-04T03:33:26;1.20;;;1.10;;
16766;SDS011;8501;49.926;8.404;2024-02-04T03:35:51;2.20;;;1.10;;
16766;SDS011;8501;49.926;8.404;2024-02-04T03:38:17;2.40;;;1.50;;
16766;SDS011;8501;49.926;8.404;2024-02-04T03:40:42;2.23;;;1.40;;
16766;SDS011;8501;49.926;8.404;2024-02-04T03:43:08;2.47;;;1.30;;
16766;SDS011;8501;49.926;8.404;2024-02-04T03:45:35;1.37;;;1.27;;
16766;SDS011;8501;49.926;8.404;2024-02-04T03:48:00;1.40;;;1.30;;
16766;SDS011;8501;49.926;8.404;2024-02-04T03:50:26;2.57;;;1.53;;
16766;SDS011;8501;49.926;8.404;2024-02-04T03:52:52;1.43;;;1.20;;
16766;SDS011;8501;49.926;8.404;2024-02-04T03:55:18;1.40;;;1.30;;
16766;SDS011;8501;49.926;8.404;2024-02-04T03:57:43;1.30;;;1.20;;
16766;SDS011;8501;49.926;8.404;2024-02-04T04:00:09;1.20;;;1.10;;
16766;SDS011;8501;49.926;8.404;2024-02-04T04:02:35;1.10;;;1.00;;
16766;SDS011;8501;49.926;8.404;2024-02-04T04:05:00;1.60;;;1.13;;
16766;SDS011;8501;49.926;8.404;2024-02-04T04:07:26;1.47;;;1.10;;
16766;SDS011;8501;49.926;8.404;2024-02-04T04:09:51;1.27;;;1.00;;
16766;SDS011;8501;49.926;8.404;2024-02-04T04:12:17;1.17;;;1.07;;
16766;SDS011;8501;49.926;8.404;2024-02-04T04:14:42;1.20;;;1.10;;
16766;SDS011;8501;49.926;8.404;2024-02-04T04:17:08;1.87;;;1.27;;
16766;SDS011;8501;49.926;8.404;2024-02-04T04:19:33;1.00;;;0.90;;
16766;SDS011;8501;49.926;8.404;2024-02-04T04:22:01;1.30;;;0.90;;
16766;SDS011;8501;49.926;8.404;2024-02-04T04:24:27;1.00;;;0.90;;
16766;SDS011;8501;49.926;8.404;2024-02-04T04:26:52;1.67;;;0.93;;
16766;SDS011;8501;49.926;8.404;2024-02-04T04:29:18;1.43;;;1.10;;
16766;SDS011;8501;49.926;8.404;2024-02-04T04:31:43;1.00;;;0.90;;
16766;SDS011;8501;49.926;8.404;2024-02-04T04:34:09;0.93;;;0.90;;
16766;SDS011;8501;49.926;8.404;2024-02-04T04:36:34;1.87;;;1.00;;
16766;SDS011;8501;49.926;8.404;2024-02-04T04:39:00;0.80;;;0.77;;
16766;SDS011;8501;49.926;8.404;2024-02-04T04:41:26;1.47;;;0.90;;
16766;SDS011;8501;49.926;8.404;2024-02-04T04:43:51;1.07;;;0.80;;
16766;SDS011;8501;49.926;8.404;2024-02-04T04:46:17;1.50;;;0.80;;
16766;SDS011;8501;49.926;8.404;2024-02-04T04:48:42;1.80;;;0.90;;
16766;SDS011;8501;49.926;8.404;2024-02-04T04:51:08;1.20;;;1.00;;
16766;SDS011;8501;49.926;8.404;2024-02-04T04:53:34;3.07;;;0.90;;
16766;SDS011;8501;49.926;8.404;2024-02-04T04:56:00;0.90;;;0.70;;
16766;SDS011;8501;49.926;8.404;2024-02-04T04:58:25;1.23;;;0.70;;
16766;SDS011;8501;49.926;8.404;2024-02-04T05:00:50;0.80;;;0.80;;
16766;SDS011;8501;49.926;8.404;2024-02-04T05:03:16;0.80;;;0.70;;
16766;SDS011;8501;49.926;8.404;2024-02-04T05:05:41;0.60;;;0.50;;
16766;SDS011;8501;49.926;8.404;2024-02-04T05:08:07;0.93;;;0.60;;
16766;SDS011;8501;49.926;8.404;2024-02-04T05:10:32;1.27;;;0.73;;
16766;SDS011;8501;49.926;8.404;2024-02-04T05:12:58;2.10;;;0.70;;
16766;SDS011;8501;49.926;8.404;2024-02-04T05:15:23;0.50;;;0.50;;
16766;SDS011;8501;49.926;8.404;2024-02-04T05:17:50;0.60;;;0.50;;
16766;SDS011;8501;49.926;8.404;2024-02-04T05:20:15;0.80;;;0.77;;
16766;SDS011;8501;49.926;8.404;2024-02-04T05:22:41;1.23;;;0.70;;
16766;SDS011;8501;49.926;8.404;2024-02-04T05:25:07;0.90;;;0.60;;
16766;SDS011;8501;49.926;8.404;2024-02-04T05:27:34;0.50;;;0.50;;
16766;SDS011;8501;49.926;8.404;2024-02-04T05:30:01;0.50;;;0.50;;
16766;SDS011;8501;49.926;8.404;2024-02-04T05:32:27;0.73;;;0.50;;
16766;SDS011;8501;49.926;8.404;2024-02-04T05:34:53;0.67;;;0.60;;
16766;SDS011;8501;49.926;8.404;2024-02-04T05:37:18;0.60;;;0.60;;
16766;SDS011;8501;49.926;8.404;2024-02-04T05:39:44;0.63;;;0.60;;
16766;SDS011;8501;49.926;8.404;2024-02-04T05:42:09;0.60;;;0.60;;
16766;SDS011;8501;49.926;8.404;2024-02-04T05:44:35;0.70;;;0.67;;
16766;SDS011;8501;49.926;8.404;2024-02-04T05:47:00;0.60;;;0.60;;
16766;SDS011;8501;49.926;8.404;2024-02-04T05:49:26;1.10;;;0.93;;
16766;SDS011;8501;49.926;8.404;2024-02-04T05:51:52;0.60;;;0.60;;
16766;SDS011;8501;49.926;8.404;2024-02-04T05:54:17;0.73;;;0.73;;
16766;SDS011;8501;49.926;8.404;2024-02-04T05:56:43;0.63;;;0.60;;
16766;SDS011;8501;49.926;8.404;2024-02-04T05:59:09;1.23;;;0.70;;
16766;SDS011;8501;49.926;8.404;2024-02-04T06:01:34;0.90;;;0.70;;
16766;SDS011;8501;49.926;8.404;2024-02-04T06:04:00;1.37;;;0.70;;
16766;SDS011;8501;49.926;8.404;2024-02-04T06:06:25;0.57;;;0.53;;
16766;SDS011;8501;49.926;8.404;2024-02-04T06:08:51;1.43;;;0.70;;
16766;SDS011;8501;49.926;8.404;2024-02-04T06:11:16;0.60;;;0.60;;
16766;SDS011;8501;49.926;8.404;2024-02-04T06:13:42;1.47;;;0.60;;
16766;SDS011;8501;49.926;8.404;2024-02-04T06:16:09;0.60;;;0.60;;
16766;SDS011;8501;49.926;8.404;2024-02-04T06:18:36;0.60;;;0.60;;
16766;SDS011;8501;49.926;8.404;2024-02-04T06:21:03;0.53;;;0.53;;
16766;SDS011;8501;49.926;8.404;2024-02-04T06:23:29;0.63;;;0.63;;
16766;SDS011;8501;49.926;8.404;2024-02-04T06:25:54;0.60;;;0.60;;
16766;SDS011;8501;49.926;8.404;2024-02-04T06:28:19;0.60;;;0.60;;
16766;SDS011;8501;49.926;8.404;2024-02-04T06:30:45;0.53;;;0.53;;
16766;SDS011;8501;49.926;8.404;2024-02-04T06:33:10;1.30;;;0.63;;
16766;SDS011;8501;49.926;8.404;2024-02-04T06:35:36;0.87;;;0.70;;
16766;SDS011;8501;49.926;8.404;2024-02-04T06:38:01;0.60;;;0.60;;
16766;SDS011;8501;49.926;8.404;2024-02-04T06:40:27;0.60;;;0.60;;
16766;SDS011;8501;49.926;8.404;2024-02-04T06:42:52;1.33;;;0.60;;
16766;SDS011;8501;49.926;8.404;2024-02-04T06:45:18;1.30;;;1.23;;
16766;SDS011;8501;49.926;8.404;2024-02-04T06:47:43;0.60;;;0.60;;
16766;SDS011;8501;49.926;8.404;2024-02-04T06:50:10;0.70;;;0.70;;
16766;SDS011;8501;49.926;8.404;2024-02-04T06:52:39;0.80;;;0.67;;
16766;SDS011;8501;49.926;8.404;2024-02-04T06:55:05;1.80;;;0.80;;
16766;SDS011;8501;49.926;8.404;2024-02-04T06:57:31;0.60;;;0.60;;
16766;SDS011;8501;49.926;8.404;2024-02-04T06:59:56;0.80;;;0.60;;
16766;SDS011;8501;49.926;8.404;2024-02-04T07:02:22;0.50;;;0.50;;
16766;SDS011;8501;49.926;8.404;2024-02-04T07:04:47;1.03;;;0.70;;
16766;SDS011;8501;49.926;8.404;2024-02-04T07:07:13;0.60;;;0.60;;
16766;SDS011;8501;49.926;8.404;2024-02-04T07:09:38;1.00;;;0.73;;
16766;SDS011;8501;49.926;8.404;2024-02-04T07:12:04;1.33;;;0.70;;
16766;SDS011;8501;49.926;8.404;2024-02-04T07:14:30;0.70;;;0.70;;
16766;SDS011;8501;49.926;8.404;2024-02-04T07:16:55;0.60;;;0.60;;
16766;SDS011;8501;49.926;8.404;2024-02-04T07:19:21;1.00;;;0.80;;
16766;SDS011;8501;49.926;8.404;2024-02-04T07:21:46;0.83;;;0.83;;
16766;SDS011;8501;49.926;8.404;2024-02-04T07:24:12;0.93;;;0.80;;
16766;SDS011;8501;49.926;8.404;2024-02-04T07:26:38;1.27;;;0.70;;
16766;SDS011;8501;49.926;8.404;2024-02-04T07:29:03;1.27;;;1.07;;
16766;SDS011;8501;49.926;8.404;2024-02-04T07:31:29;0.80;;;0.80;;
16766;SDS011;8501;49.926;8.404;2024-02-04T07:33:55;0.70;;;0.70;;
16766;SDS011;8501;49.926;8.404;2024-02-04T07:36:21;0.83;;;0.80;;
16766;SDS011;8501;49.926;8.404;2024-02-04T07:38:46;0.77;;;0.70;;
16766;SDS011;8501;49.926;8.404;2024-02-04T07:41:15;0.73;;;0.70;;
16766;SDS011;8501;49.926;8.404;2024-02-04T07:43:40;0.73;;;0.73;;
16766;SDS011;8501;49.926;8.404;2024-02-04T07:46:07;1.00;;;0.90;;
16766;SDS011;8501;49.926;8.404;2024-02-04T07:48:33;0.73;;;0.73;;
16766;SDS011;8501;49.926;8.404;2024-02-04T07:50:59;0.80;;;0.80;;
16766;SDS011;8501;49.926;8.404;2024-02-04T07:53:24;0.83;;;0.83;;
16766;SDS011;8501;49.926;8.404;2024-02-04T07:55:50;0.80;;;0.80;;
16766;SDS011;8501;49.926;8.404;2024-02-04T07:58:16;0.80;;;0.80;;
16766;SDS011;8501;49.926;8.404;2024-02-04T08:00:41;1.03;;;0.97;;
16766;SDS011;8501;49.926;8.404;2024-02-04T08:03:07;0.77;;;0.77;;
16766;SDS011;8501;49.926;8.404;2024-02-04T08:05:33;0.80;;;0.80;;
16766;SDS011;8501;49.926;8.404;2024-02-04T08:08:00;1.00;;;0.80;;
16766;SDS011;8501;49.926;8.404;2024-02-04T08:10:26;0.80;;;0.80;;
16766;SDS011;8501;49.926;8.404;2024-02-04T08:12:51;0.90;;;0.90;;
16766;SDS011;8501;49.926;8.404;2024-02-04T08:15:18;0.83;;;0.83;;
16766;SDS011;8501;49.926;8.404;2024-02-04T08:17:44;0.80;;;0.80;;
16766;SDS011;8501;49.926;8.404;2024-02-04T08:20:10;1.13;;;0.90;;
16766;SDS011;8501;49.926;8.404;2024-02-04T08:22:36;0.70;;;0.70;;
16766;SDS011;8501;49.926;8.404;2024-02-04T08:25:03;0.90;;;0.90;;
16766;SDS011;8501;49.926;8.404;2024-02-04T08:27:32;1.90;;;0.80;;
16766;SDS011;8501;49.926;8.404;2024-02-04T08:29:57;1.17;;;0.80;;
16766;SDS011;8501;49.926;8.404;2024-02-04T08:32:23;1.00;;;0.90;;
16766;SDS011;8501;49.926;8.404;2024-02-04T08:34:49;0.70;;;0.70;;
16766;SDS011;8501;49.926;8.404;2024-02-04T08:37:14;0.70;;;0.70;;
16766;SDS011;8501;49.926;8.404;2024-02-04T08:39:40;1.33;;;0.90;;
16766;SDS011;8501;49.926;8.404;2024-02-04T08:42:05;0.77;;;0.60;;
16766;SDS011;8501;49.926;8.404;2024-02-04T08:44:31;1.10;;;0.70;;
16766;SDS011;8501;49.926;8.404;2024-02-04T08:46:57;0.70;;;0.70;;
16766;SDS011;8501;49.926;8.404;2024-02-04T08:49:23;1.37;;;0.90;;
16766;SDS011;8501;49.926;8.404;2024-02-04T08:51:49;0.63;;;0.63;;
16766;SDS011;8501;49.926;8.404;2024-02-04T08:54:14;1.03;;;0.70;;
16766;SDS011;8501;49.926;8.404;2024-02-04T08:56:40;2.00;;;1.03;;
16766;SDS011;8501;49.926;8.404;2024-02-04T08:59:06;2.10;;;0.90;;
16766;SDS011;8501;49.926;8.404;2024-02-04T09:01:32;0.67;;;0.67;;
16766;SDS011;8501;49.926;8.404;2024-02-04T09:03:59;0.80;;;0.80;;
16766;SDS011;8501;49.926;8.404;2024-02-04T09:06:25;0.70;;;0.70;;
16766;SDS011;8501;49.926;8.404;2024-02-04T09:08:50;0.70;;;0.70;;
16766;SDS011;8501;49.926;8.404;2024-02-04T09:11:16;0.70;;;0.70;;
16766;SDS011;8501;49.926;8.404;2024-02-04T09:13:46;1.27;;;0.60;;
16766;SDS011;8501;49.926;8.404;2024-02-04T09:16:12;0.70;;;0.70;;
16766;SDS011;8501;49.926;8.404;2024-02-04T09:18:38;0.70;;;0.70;;
16766;SDS011;8501;49.926;8.404;2024-02-04T09:21:03;0.80;;;0.80;;
16766;SDS011;8501;49.926;8.404;2024-02-04T09:23:29;1.07;;;0.80;;
16766;SDS011;8501;49.926;8.404;2024-02-04T09:25:54;0.60;;;0.60;;
16766;SDS011;8501;49.926;8.404;2024-02-04T09:28:20;0.70;;;0.70;;
16766;SDS011;8501;49.926;8.404;2024-02-04T09:30:45;0.90;;;0.60;;
16766;SDS011;8501;49.926;8.404;2024-02-04T09:33:13;0.60;;;0.60;;
16766;SDS011;8501;49.926;8.404;2024-02-04T09:35:39;1.50;;;0.90;;
16766;SDS011;8501;49.926;8.404;2024-02-04T09:38:05;0.90;;;0.87;;
16766;SDS011;8501;49.926;8.404;2024-02-04T09:40:31;0.70;;;0.70;;
16766;SDS011;8501;49.926;8.404;2024-02-04T09:42:57;1.03;;;0.83;;
16766;SDS011;8501;49.926;8.404;2024-02-04T09:45:24;1.00;;;0.90;;
16766;SDS011;8501;49.926;8.404;2024-02-04T09:47:50;0.97;;;0.87;;
16766;SDS011;8501;49.926;8.404;2024-02-04T09:50:19;1.13;;;1.00;;
16766;SDS011;8501;49.926;8.404;2024-02-04T09:52:47;1.23;;;1.00;;
16766;SDS011;8501;49.926;8.404;2024-02-04T09:55:15;0.97;;;0.87;;
16766;SDS011;8501;49.926;8.404;2024-02-04T09:57:42;0.93;;;0.90;;
16766;SDS011;8501;49.926;8.404;2024-02-04T10:00:09;1.17;;;0.70;;
16766;SDS011;8501;49.926;8.404;2024-02-04T10:02:35;1.70;;;1.30;;
16766;SDS011;8501;49.926;8.404;2024-02-04T10:05:02;0.90;;;0.90;;
16766;SDS011;8501;49.926;8.404;2024-02-04T10:07:28;0.70;;;0.70;;
16766;SDS011;8501;49.926;8.404;2024-02-04T10:09:54;1.30;;;1.20;;
16766;SDS011;8501;49.926;8.404;2024-02-04T10:12:20;0.90;;;0.90;;
16766;SDS011;8501;49.926;8.404;2024-02-04T10:14:46;2.40;;;1.00;;
16766;SDS011;8501;49.926;8.404;2024-02-04T10:17:13;1.40;;;0.90;;
16766;SDS011;8501;49.926;8.404;2024-02-04T10:19:40;1.03;;;0.93;;
16766;SDS011;8501;49.926;8.404;2024-02-04T10:22:05;1.20;;;0.90;;
16766;SDS011;8501;49.926;8.404;2024-02-04T10:24:31;0.90;;;0.90;;
16766;SDS011;8501;49.926;8.404;2024-02-04T10:26:57;0.80;;;0.80;;
16766;SDS011;8501;49.926;8.404;2024-02-04T10:29:23;2.77;;;1.97;;
16766;SDS011;8501;49.926;8.404;2024-02-04T10:31:52;1.50;;;1.30;;
16766;SDS011;8501;49.926;8.404;2024-02-04T10:34:22;1.50;;;1.00;;
16766;SDS011;8501;49.926;8.404;2024-02-04T10:36:50;1.33;;;1.10;;
16766;SDS011;8501;49.926;8.404;2024-02-04T10:39:16;1.50;;;1.40;;
16766;SDS011;8501;49.926;8.404;2024-02-04T10:41:43;1.60;;;1.50;;
16766;SDS011;8501;49.926;8.404;2024-02-04T10:44:16;1.50;;;1.40;;
16766;SDS011;8501;49.926;8.404;2024-02-04T10:46:42;3.10;;;2.37;;
16766;SDS011;8501;49.926;8.404;2024-02-04T10:49:13;1.50;;;1.37;;
16766;SDS011;8501;49.926;8.404;2024-02-04T10:51:40;1.60;;;1.50;;
16766;SDS011;8501;49.926;8.404;2024-02-04T10:54:06;1.47;;;1.30;;
16766;SDS011;8501;49.926;8.404;2024-02-04T10:56:43;1.40;;;1.30;;
16766;SDS011;8501;49.926;8.404;2024-02-04T10:59:10;1.10;;;1.00;;
16766;SDS011;8501;49.926;8.404;2024-02-04T11:01:38;1.10;;;1.00;;
16766;SDS011;8501;49.926;8.404;2024-02-04T11:04:04;1.10;;;0.90;;
16766;SDS011;8501;49.926;8.404;2024-02-04T11:06:31;1.10;;;1.00;;
16766;SDS011;8501;49.926;8.404;2024-02-04T11:08:57;1.50;;;1.03;;
16766;SDS011;8501;49.926;8.404;2024-02-04T11:11:25;1.70;;;1.10;;
16766;SDS011;8501;49.926;8.404;2024-02-04T11:13:53;1.10;;;1.00;;
16766;SDS011;8501;49.926;8.404;2024-02-04T11:16:27;1.20;;;1.10;;
16766;SDS011;8501;49.926;8.404;2024-02-04T11:19:19;0.97;;;0.97;;
16766;SDS011;8501;49.926;8.404;2024-02-04T11:22:03;1.20;;;1.10;;
16766;SDS011;8501;49.926;8.404;2024-02-04T11:27:55;1.77;;;1.33;;
16766;SDS011;8501;49.926;8.404;2024-02-04T11:30:22;1.20;;;1.10;;
16766;SDS011;8501;49.926;8.404;2024-02-04T11:32:48;2.07;;;1.87;;
16766;SDS011;8501;49.926;8.404;2024-02-04T11:35:13;1.87;;;1.10;;
16766;SDS011;8501;49.926;8.404;2024-02-04T11:37:39;1.77;;;1.67;;
16766;SDS011;8501;49.926;8.404;2024-02-04T11:40:14;1.20;;;1.10;;
16766;SDS011;8501;49.926;8.404;2024-02-04T11:42:43;1.20;;;1.10;;
16766;SDS011;8501;49.926;8.404;2024-02-04T11:45:10;1.27;;;1.17;;
16766;SDS011;8501;49.926;8.404;2024-02-04T11:47:37;1.10;;;1.00;;
16766;SDS011;8501;49.926;8.404;2024-02-04T11:50:04;1.40;;;1.20;;
16766;SDS011;8501;49.926;8.404;2024-02-04T11:52:30;1.87;;;1.13;;
16766;SDS011;8501;49.926;8.404;2024-02-04T11:54:55;1.40;;;1.10;;
16766;SDS011;8501;49.926;8.404;2024-02-04T11:57:21;1.20;;;1.10;;
16766;SDS011;8501;49.926;8.404;2024-02-04T11:59:48;2.37;;;1.80;;
16766;SDS011;8501;49.926;8.404;2024-02-04T12:02:18;2.00;;;1.83;;
16766;SDS011;8501;49.926;8.404;2024-02-04T12:04:44;1.90;;;1.70;;
16766;SDS011;8501;49.926;8.404;2024-02-04T12:07:11;1.70;;;1.60;;
16766;SDS011;8501;49.926;8.404;2024-02-04T12:09:38;1.50;;;1.40;;
16766;SDS011;8501;49.926;8.404;2024-02-04T12:12:04;1.70;;;1.57;;
16766;SDS011;8501;49.926;8.404;2024-02-04T12:14:30;1.60;;;1.50;;
16766;SDS011;8501;49.926;8.404;2024-02-04T12:16:56;1.40;;;1.30;;
16766;SDS011;8501;49.926;8.404;2024-02-04T12:19:25;1.60;;;1.50;;
16766;SDS011;8501;49.926;8.404;2024-02-04T12:21:50;1.47;;;1.33;;
16766;SDS011;8501;49.926;8.404;2024-02-04T12:24:16;1.60;;;1.50;;
16766;SDS011;8501;49.926;8.404;2024-02-04T12:26:42;1.60;;;1.50;;
16766;SDS011;8501;49.926;8.404;2024-02-04T12:29:10;1.60;;;1.50;;
16766;SDS011;8501;49.926;8.404;2024-02-04T12:31:35;2.27;;;1.70;;
16766;SDS011;8501;49.926;8.404;2024-02-04T12:34:01;1.80;;;1.70;;
16766;SDS011;8501;49.926;8.404;2024-02-04T12:36:27;1.77;;;1.67;;
16766;SDS011;8501;49.926;8.404;2024-02-04T12:38:54;2.00;;;1.80;;
16766;SDS011;8501;49.926;8.404;2024-02-04T12:41:21;1.60;;;1.50;;
16766;SDS011;8501;49.926;8.404;2024-02-04T12:43:50;1.87;;;1.60;;
16766;SDS011;8501;49.926;8.404;2024-02-04T12:46:17;1.80;;;1.70;;
16766;SDS011;8501;49.926;8.404;2024-02-04T12:48:53;1.60;;;1.50;;
16766;SDS011;8501;49.926;8.404;2024-02-04T12:51:23;1.67;;;1.50;;
16766;SDS011;8501;49.926;8.404;2024-02-04T12:54:10;1.57;;;1.47;;
16766;SDS011;8501;49.926;8.404;2024-02-04T12:56:41;2.20;;;1.60;;
16766;SDS011;8501;49.926;8.404;2024-02-04T12:59:27;2.63;;;1.50;;
16766;SDS011;8501;49.926;8.404;2024-02-04T13:01:55;2.13;;;1.23;;
16766;SDS011;8501;49.926;8.404;2024-02-04T13:04:22;1.47;;;1.37;;
16766;SDS011;8501;49.926;8.404;2024-02-04T13:06:48;1.60;;;1.40;;
16766;SDS011;8501;49.926;8.404;2024-02-04T13:09:14;1.73;;;1.63;;
16766;SDS011;8501;49.926;8.404;2024-02-04T13:11:43;1.70;;;1.60;;
16766;SDS011;8501;49.926;8.404;2024-02-04T13:14:09;1.97;;;1.43;;
16766;SDS011;8501;49.926;8.404;2024-02-04T13:16:35;1.70;;;1.33;;
16766;SDS011;8501;49.926;8.404;2024-02-04T13:19:02;4.17;;;2.10;;
16766;SDS011;8501;49.926;8.404;2024-02-04T13:21:28;1.40;;;1.30;;
16766;SDS011;8501;49.926;8.404;2024-02-04T13:23:53;1.30;;;1.20;;
16766;SDS011;8501;49.926;8.404;2024-02-04T13:26:19;1.57;;;1.40;;
16766;SDS011;8501;49.926;8.404;2024-02-04T13:28:45;1.47;;;1.37;;
16766;SDS011;8501;49.926;8.404;2024-02-04T13:31:11;1.40;;;1.30;;
16766;SDS011;8501;49.926;8.404;2024-02-04T13:33:40;1.80;;;1.70;;
16766;SDS011;8501;49.926;8.404;2024-02-04T13:36:08;2.33;;;1.40;;
16766;SDS011;8501;49.926;8.404;2024-02-04T13:38:35;1.23;;;1.13;;
16766;SDS011;8501;49.926;8.404;2024-02-04T13:41:01;2.10;;;1.30;;
16766;SDS011;8501;49.926;8.404;2024-02-04T13:43:29;1.57;;;1.20;;
16766;SDS011;8501;49.926;8.404;2024-02-04T13:45:54;1.37;;;1.27;;
16766;SDS011;8501;49.926;8.404;2024-02-04T13:48:20;1.23;;;1.13;;
16766;SDS011;8501;49.926;8.404;2024-02-04T13:50:47;1.40;;;1.30;;
16766;SDS011;8501;49.926;8.404;2024-02-04T13:53:12;1.40;;;1.30;;
16766;SDS011;8501;49.926;8.404;2024-02-04T13:55:38;2.23;;;1.33;;
16766;SDS011;8501;49.926;8.404;2024-02-04T13:58:04;4.33;;;1.80;;
16766;SDS011;8501;49.926;8.404;2024-02-04T14:00:29;3.20;;;2.20;;
16766;SDS011;8501;49.926;8.404;2024-02-04T14:02:55;2.40;;;1.10;;
16766;SDS011;8501;49.926;8.404;2024-02-04T14:05:20;1.20;;;1.10;;
16766;SDS011;8501;49.926;8.404;2024-02-04T14:07:46;1.00;;;1.00;;
16766;SDS011;8501;49.926;8.404;2024-02-04T14:10:11;1.00;;;0.93;;
16766;SDS011;8501;49.926;8.404;2024-02-04T14:12:39;1.40;;;1.30;;
16766;SDS011;8501;49.926;8.404;2024-02-04T14:15:06;1.10;;;1.00;;
16766;SDS011;8501;49.926;8.404;2024-02-04T14:17:32;1.30;;;0.97;;
16766;SDS011;8501;49.926;8.404;2024-02-04T14:19:57;0.90;;;0.90;;
16766;SDS011;8501;49.926;8.404;2024-02-04T14:22:23;1.17;;;0.90;;
16766;SDS011;8501;49.926;8.404;2024-02-04T14:24:49;0.80;;;0.80;;
16766;SDS011;8501;49.926;8.404;2024-02-04T14:27:15;1.77;;;0.90;;
16766;SDS011;8501;49.926;8.404;2024-02-04T14:29:40;0.80;;;0.80;;
16766;SDS011;8501;49.926;8.404;2024-02-04T14:32:06;1.93;;;0.80;;
16766;SDS011;8501;49.926;8.404;2024-02-04T14:34:33;1.13;;;0.93;;
16766;SDS011;8501;49.926;8.404;2024-02-04T14:36:59;0.70;;;0.70;;
16766;SDS011;8501;49.926;8.404;2024-02-04T14:39:24;0.70;;;0.70;;
16766;SDS011;8501;49.926;8.404;2024-02-04T14:41:50;1.70;;;0.90;;
16766;SDS011;8501;49.926;8.404;2024-02-04T14:44:18;1.10;;;0.80;;
16766;SDS011;8501;49.926;8.404;2024-02-04T14:46:43;0.93;;;0.80;;
16766;SDS011;8501;49.926;8.404;2024-02-04T14:49:10;0.70;;;0.70;;
16766;SDS011;8501;49.926;8.404;2024-02-04T14:51:39;0.90;;;0.90;;
16766;SDS011;8501;49.926;8.404;2024-02-04T14:54:05;0.60;;;0.60;;
16766;SDS011;8501;49.926;8.404;2024-02-04T14:56:38;0.77;;;0.77;;
16766;SDS011;8501;49.926;8.404;2024-02-04T14:59:04;0.97;;;0.80;;
16766;SDS011;8501;49.926;8.404;2024-02-04T15:01:31;1.00;;;0.90;;
16766;SDS011;8501;49.926;8.404;2024-02-04T15:03:57;0.80;;;0.80;;